Time;durP1;ratioP1;P1;durP2;ratioP2;P2;SDS_P1;SDS_P2;PMS_P1;PMS_P2;Temp;Humidity;BMP_temperature;BMP_pressure;BME280_temperature;BME280_humidity;BME280_pressure;Samples;Min_cycle;Max_cycle;Signal;HPM_P1;HPM_P2
2023/07/02 00:02:15;;;;;;;6.95;3.27;;;27.40;99.90;;;;;;1849059;76;21115;-80
2023/07/02 00:04:52;;;;;;;6.55;2.83;;;27.40;99.90;;;;;;1813823;77;21573;-79
2023/07/02 00:07:29;;;;;;;5.15;2.80;;;27.50;99.90;;;;;;1817419;76;21153;-81
2023/07/02 00:10:00;;;;;;;7.35;3.10;;;27.40;99.90;;;;;;1830448;76;21051;-81
2023/07/02 00:12:33;;;;;;;4.80;3.08;;;27.50;99.90;;;;;;1850848;76;21151;-81
2023/07/02 00:15:09;;;;;;;5.90;3.20;;;27.50;99.90;;;;;;1867817;74;21192;-80
2023/07/02 00:17:42;;;;;;;8.40;3.50;;;27.50;99.90;;;;;;1913332;74;21721;-78
2023/07/02 00:20:23;;;;;;;7.00;2.98;;;27.50;99.90;;;;;;1840181;76;21083;-79
2023/07/02 00:22:57;;;;;;;7.92;3.50;;;27.50;99.90;;;;;;1821276;77;21174;-77
2023/07/02 00:25:30;;;;;;;6.17;3.02;;;27.60;99.90;;;;;;1813962;77;21076;-76
2023/07/02 00:28:01;;;;;;;8.23;3.50;;;27.60;99.90;;;;;;1816599;77;21109;-78
2023/07/02 00:30:33;;;;;;;5.05;3.40;;;27.60;99.90;;;;;;1812530;77;21125;-77
2023/07/02 00:33:06;;;;;;;7.47;3.67;;;27.70;99.90;;;;;;1811573;78;21125;-77
2023/07/02 00:35:40;;;;;;;6.97;3.50;;;27.70;99.90;;;;;;1839810;76;21092;-81
2023/07/02 00:38:14;;;;;;;8.83;3.90;;;27.70;99.90;;;;;;1815815;77;21116;-82
2023/07/02 00:40:47;;;;;;;7.87;4.00;;;27.80;99.90;;;;;;1817074;77;21586;-80
2023/07/02 00:43:20;;;;;;;7.03;3.90;;;27.80;99.90;;;;;;1813941;78;21117;-81
2023/07/02 00:45:54;;;;;;;10.80;4.67;;;27.90;99.90;;;;;;1810328;78;21104;-81
2023/07/02 00:48:28;;;;;;;10.10;3.75;;;27.90;99.90;;;;;;1823185;77;21544;-76
2023/07/02 00:51:01;;;;;;;8.85;4.22;;;28.00;99.90;;;;;;1810452;77;21098;-75
2023/07/02 00:53:39;;;;;;;6.25;3.52;;;28.00;99.90;;;;;;1812935;77;21109;-77
2023/07/02 00:56:11;;;;;;;7.17;4.58;;;28.10;99.90;;;;;;1840343;76;21153;-75
2023/07/02 00:58:50;;;;;;;8.55;4.58;;;28.00;99.90;;;;;;1846445;76;21127;-76
2023/07/02 01:01:31;;;;;;;6.22;3.75;;;28.10;99.90;;;;;;1847680;76;21174;-76
2023/07/02 01:04:07;;;;;;;7.05;4.70;;;28.20;99.90;;;;;;1850695;76;21172;-76
2023/07/02 01:06:42;;;;;;;8.88;4.40;;;28.20;99.90;;;;;;1813785;77;21174;-78
2023/07/02 01:09:18;;;;;;;6.62;4.22;;;28.30;99.90;;;;;;1844166;76;21080;-79
2023/07/02 01:11:52;;;;;;;8.65;4.45;;;28.30;99.90;;;;;;1827400;77;21558;-77
2023/07/02 01:14:36;;;;;;;13.38;5.62;;;28.40;99.90;;;;;;1838337;76;21529;-78
2023/07/02 01:17:10;;;;;;;14.63;5.00;;;28.40;99.90;;;;;;1809067;78;21083;-79
2023/07/02 01:19:54;;;;;;;15.65;5.33;;;28.60;99.90;;;;;;1840732;76;21185;-76
2023/07/02 01:22:28;;;;;;;7.45;4.70;;;28.70;99.90;;;;;;1836923;76;21159;-79
2023/07/02 01:25:01;;;;;;;15.93;5.83;;;28.70;99.90;;;;;;1842708;76;21087;-79
2023/07/02 01:27:35;;;;;;;8.63;4.92;;;28.80;99.90;;;;;;1835772;76;21198;-78
2023/07/02 01:30:12;;;;;;;11.28;5.00;;;28.90;99.90;;;;;;1834615;76;21122;-77
2023/07/02 01:32:45;;;;;;;6.47;4.60;;;28.90;99.90;;;;;;1834963;77;21118;-76
2023/07/02 01:35:19;;;;;;;14.38;5.53;;;28.90;99.90;;;;;;1832004;76;21070;-77
2023/07/02 01:37:51;;;;;;;9.18;4.47;;;29.00;99.90;;;;;;1818644;77;21191;-80
2023/07/02 01:40:24;;;;;;;10.05;4.85;;;29.10;99.90;;;;;;1811632;77;21182;-77
2023/07/02 01:43:03;;;;;;;11.03;5.08;;;29.10;99.90;;;;;;1848220;76;21129;-79
2023/07/02 01:45:49;;;;;;;9.03;4.78;;;29.20;99.90;;;;;;1839889;76;21143;-76
2023/07/02 01:48:21;;;;;;;22.50;6.00;;;29.20;99.90;;;;;;1840887;76;21132;-77
2023/07/02 01:50:56;;;;;;;10.90;4.97;;;29.30;99.90;;;;;;1842003;76;21696;-79
2023/07/02 01:53:31;;;;;;;22.30;7.20;;;29.30;99.90;;;;;;1851653;75;21183;-78
2023/07/02 01:56:10;;;;;;;13.08;6.20;;;29.40;99.90;;;;;;1828142;76;21109;-78
2023/07/02 01:58:48;;;;;;;9.30;5.40;;;29.50;99.90;;;;;;1801797;78;21146;-79
2023/07/02 02:01:40;;;;;;;8.98;4.95;;;29.50;99.90;;;;;;1815336;77;21670;-79
2023/07/02 02:04:12;;;;;;;13.20;6.00;;;29.60;99.90;;;;;;1815628;77;21130;-77
2023/07/02 02:06:46;;;;;;;6.85;4.58;;;29.70;99.90;;;;;;1792653;77;21154;-80
2023/07/02 02:09:29;;;;;;;8.68;5.03;;;29.80;99.90;;;;;;1843692;76;21230;-76
2023/07/02 02:12:19;;;;;;;10.82;5.50;;;29.90;99.90;;;;;;1805842;77;21139;-79
2023/07/02 02:14:52;;;;;;;10.35;5.45;;;30.00;99.90;;;;;;1813528;77;21575;-78
2023/07/02 02:17:30;;;;;;;8.45;5.60;;;30.10;99.90;;;;;;1893731;74;21110;-77
2023/07/02 02:20:05;;;;;;;12.75;5.70;;;30.10;99.90;;;;;;1815924;77;21564;-80
2023/07/02 02:22:40;;;;;;;14.23;5.97;;;30.20;99.90;;;;;;1840694;76;21060;-77
2023/07/02 02:25:13;;;;;;;10.50;5.72;;;30.20;99.90;;;;;;1843814;76;21142;-77
2023/07/02 02:28:03;;;;;;;14.55;6.00;;;30.30;99.90;;;;;;1888782;74;21093;-78
2023/07/02 02:30:41;;;;;;;7.75;5.62;;;30.40;99.90;;;;;;1813817;77;21704;-76
2023/07/02 02:33:15;;;;;;;13.05;5.87;;;30.40;99.90;;;;;;1803026;78;21099;-79
2023/07/02 02:35:49;;;;;;;10.40;6.30;;;30.50;99.90;;;;;;1810426;78;21105;-76
2023/07/02 02:38:39;;;;;;;12.33;6.33;;;30.50;99.90;;;;;;1816270;76;21156;-79
2023/07/02 02:41:14;;;;;;;8.23;5.67;;;30.60;99.90;;;;;;1892410;74;21103;-77
2023/07/02 02:43:47;;;;;;;12.60;6.75;;;30.70;99.90;;;;;;1837806;78;21067;-77
2023/07/02 02:46:23;;;;;;;7.75;4.90;;;30.70;99.90;;;;;;1836698;76;21094;-79
2023/07/02 02:48:56;;;;;;;11.20;6.12;;;30.80;99.90;;;;;;1829201;78;21248;-80
2023/07/02 02:51:29;;;;;;;10.80;5.83;;;30.90;99.90;;;;;;1824738;78;21195;-78
2023/07/02 02:54:05;;;;;;;16.12;6.58;;;30.90;99.90;;;;;;1894403;75;21125;-78
2023/07/02 02:56:39;;;;;;;11.68;6.55;;;30.80;99.90;;;;;;1846534;76;21226;-79
2023/07/02 02:59:11;;;;;;;11.97;5.50;;;30.90;99.90;;;;;;1896584;74;21158;-76
2023/07/02 03:01:44;;;;;;;7.40;5.25;;;30.90;99.90;;;;;;1849751;76;21120;-78
2023/07/02 03:04:17;;;;;;;13.22;7.87;;;30.80;99.90;;;;;;1807188;78;21519;-75
2023/07/02 03:06:50;;;;;;;15.68;7.42;;;30.80;99.90;;;;;;1825987;78;21142;-78
2023/07/02 03:09:26;;;;;;;15.10;5.97;;;30.80;99.90;;;;;;1833104;78;21083;-81
2023/07/02 03:12:05;;;;;;;18.67;7.45;;;30.80;99.90;;;;;;1835202;78;21161;-77
2023/07/02 03:14:39;;;;;;;8.28;6.03;;;30.80;99.90;;;;;;1834678;78;21169;-80
2023/07/02 03:17:14;;;;;;;13.55;5.85;;;30.80;99.90;;;;;;1840845;76;21786;-80
2023/07/02 03:19:50;;;;;;;13.78;5.90;;;30.80;99.90;;;;;;1816791;77;21155;-79
2023/07/02 03:22:23;;;;;;;29.35;10.68;;;30.90;99.90;;;;;;1812876;78;21099;-79
2023/07/02 03:24:58;;;;;;;18.50;7.30;;;30.90;99.90;;;;;;1837842;76;21066;-80
2023/07/02 03:27:56;;;;;;;23.15;8.33;;;30.90;99.90;;;;;;1839592;76;21180;-78
2023/07/02 03:30:46;;;;;;;21.87;8.35;;;30.90;99.90;;;;;;1806695;78;21076;-79
2023/07/02 03:33:25;;;;;;;9.83;5.87;;;31.00;99.90;;;;;;1814825;78;21144;-80
2023/07/02 03:35:59;;;;;;;25.62;7.37;;;31.10;99.90;;;;;;1844834;76;21168;-76
2023/07/02 03:38:31;;;;;;;29.23;9.05;;;31.10;99.90;;;;;;1884284;75;21516;-79
2023/07/02 03:41:02;;;;;;;29.85;8.60;;;31.20;99.90;;;;;;1836030;76;21159;-79
2023/07/02 03:43:37;;;;;;;30.65;8.08;;;31.20;99.90;;;;;;1834250;76;21575;-79
2023/07/02 03:46:12;;;;;;;20.10;7.28;;;31.30;99.90;;;;;;1812765;78;21517;-80
2023/07/02 03:48:44;;;;;;;16.52;7.22;;;31.40;99.90;;;;;;1832284;76;21094;-78
2023/07/02 03:51:18;;;;;;;7.22;4.92;;;31.50;99.90;;;;;;1845476;76;21108;-81
2023/07/02 03:53:50;;;;;;;10.72;5.40;;;31.60;99.90;;;;;;1892967;75;21172;-78
2023/07/02 03:56:34;;;;;;;27.25;7.25;;;31.60;99.90;;;;;;1875568;76;21480;-79
2023/07/02 03:59:06;;;;;;;16.37;5.75;;;31.60;99.90;;;;;;1894317;74;21059;-79
2023/07/02 04:01:40;;;;;;;12.00;5.22;;;31.60;99.90;;;;;;1833170;78;21105;-76
2023/07/02 04:04:14;;;;;;;8.85;5.47;;;31.70;99.90;;;;;;1886789;73;21096;-78
2023/07/02 04:06:46;;;;;;;8.78;4.90;;;31.70;99.90;;;;;;1830129;76;21190;-77
2023/07/02 04:09:21;;;;;;;13.70;5.97;;;31.60;99.90;;;;;;1833517;76;21673;-76
2023/07/02 04:11:57;;;;;;;8.68;5.35;;;31.60;99.90;;;;;;1836484;76;21133;-79
2023/07/02 04:14:31;;;;;;;12.47;5.58;;;31.70;99.90;;;;;;1788704;78;21433;-78
2023/07/02 04:17:08;;;;;;;10.15;5.50;;;31.80;99.90;;;;;;1834336;76;21518;-74
2023/07/02 04:19:42;;;;;;;19.15;6.28;;;31.90;99.90;;;;;;1845093;75;21590;-78
2023/07/02 04:22:18;;;;;;;15.00;6.33;;;32.00;99.90;;;;;;1857091;77;21149;-78
2023/07/02 04:24:54;;;;;;;16.10;5.12;;;32.00;99.90;;;;;;1817507;77;21479;-78
2023/07/02 04:27:31;;;;;;;12.13;4.80;;;32.10;99.90;;;;;;1838495;76;21117;-75
2023/07/02 04:30:05;;;;;;;7.70;4.47;;;32.20;99.90;;;;;;1847471;76;21668;-78
2023/07/02 04:32:42;;;;;;;6.97;4.30;;;32.20;99.10;;;;;;1840316;76;21151;-76
2023/07/02 04:35:17;;;;;;;6.58;3.95;;;32.20;99.90;;;;;;1845788;77;21088;-77
2023/07/02 04:37:51;;;;;;;11.35;4.85;;;32.20;99.90;;;;;;1813488;77;21123;-76
2023/07/02 04:40:26;;;;;;;23.32;6.75;;;32.20;99.90;;;;;;1839400;76;21172;-80
2023/07/02 04:43:03;;;;;;;7.05;4.25;;;32.30;99.80;;;;;;1804807;78;21093;-82
2023/07/02 04:45:36;;;;;;;11.63;4.28;;;32.40;99.20;;;;;;1809078;78;21165;-78
2023/07/02 04:48:08;;;;;;;7.72;4.40;;;32.50;99.00;;;;;;1791253;78;21576;-78
2023/07/02 04:50:42;;;;;;;5.12;3.50;;;32.60;99.20;;;;;;1793297;77;21123;-76
2023/07/02 04:53:33;;;;;;;6.28;3.60;;;32.70;99.60;;;;;;1787855;78;21517;-75
2023/07/02 04:56:06;;;;;;;5.00;3.72;;;32.60;99.20;;;;;;1832826;76;21080;-78
2023/07/02 04:58:39;;;;;;;6.20;3.98;;;32.70;99.10;;;;;;1857478;76;21114;-76
2023/07/02 05:01:15;;;;;;;9.00;3.52;;;32.50;98.90;;;;;;1818470;77;21179;-79
2023/07/02 05:03:52;;;;;;;6.45;3.37;;;32.80;99.20;;;;;;1828598;78;21123;-77
2023/07/02 05:06:25;;;;;;;5.37;3.90;;;32.90;98.00;;;;;;1836778;76;21069;-78
2023/07/02 05:09:00;;;;;;;7.50;4.85;;;32.90;98.30;;;;;;1832319;78;21150;-78
2023/07/02 05:11:31;;;;;;;5.45;4.03;;;32.80;98.00;;;;;;1835144;77;21148;-79
2023/07/02 05:14:07;;;;;;;12.77;4.57;;;32.90;98.20;;;;;;1836675;76;21146;-78
2023/07/02 05:16:44;;;;;;;7.00;4.05;;;32.90;98.60;;;;;;1836385;78;21387;-76
2023/07/02 05:19:17;;;;;;;4.90;3.45;;;33.00;97.90;;;;;;1834264;77;21163;-78
2023/07/02 05:21:49;;;;;;;5.90;3.52;;;33.10;97.80;;;;;;1838126;78;21120;-80
2023/07/02 05:24:23;;;;;;;14.23;4.42;;;33.10;97.40;;;;;;1810237;78;21092;-78
2023/07/02 05:26:58;;;;;;;6.92;3.62;;;33.10;98.00;;;;;;1835274;77;21158;-79
2023/07/02 05:29:31;;;;;;;5.35;3.30;;;33.10;97.60;;;;;;1837709;76;21114;-78
2023/07/02 05:32:05;;;;;;;7.30;3.60;;;33.20;97.90;;;;;;1831481;78;21079;-74
2023/07/02 05:34:39;;;;;;;6.22;3.70;;;33.30;97.50;;;;;;1836545;78;21081;-74
2023/07/02 05:37:11;;;;;;;6.83;3.40;;;33.40;97.80;;;;;;1838997;76;21088;-74
2023/07/02 05:39:48;;;;;;;6.85;3.60;;;33.60;98.00;;;;;;1788285;78;21048;-77
2023/07/02 05:42:29;;;;;;;11.70;3.80;;;33.60;97.00;;;;;;1774778;80;21174;-75
2023/07/02 05:45:02;;;;;;;7.05;3.52;;;33.60;96.70;;;;;;1803881;78;21479;-76
2023/07/02 05:47:36;;;;;;;9.53;3.70;;;33.50;97.00;;;;;;1786090;79;21119;-75
2023/07/02 05:50:10;;;;;;;4.90;3.45;;;33.40;97.00;;;;;;1842414;76;21139;-76
2023/07/02 05:52:41;;;;;;;5.90;3.10;;;33.40;96.30;;;;;;1839727;76;21092;-79
2023/07/02 05:55:14;;;;;;;4.00;2.77;;;33.40;96.50;;;;;;1804160;78;21100;-81
2023/07/02 05:57:48;;;;;;;7.60;3.27;;;33.40;96.80;;;;;;1807493;78;21124;-77
2023/07/02 06:00:20;;;;;;;5.37;3.00;;;33.40;97.10;;;;;;1813134;78;21147;-79
2023/07/02 06:02:56;;;;;;;7.70;3.20;;;33.30;96.40;;;;;;1809837;78;21102;-78
2023/07/02 06:05:39;;;;;;;5.17;3.15;;;33.30;96.90;;;;;;1813539;78;21770;-79
2023/07/02 06:08:12;;;;;;;7.08;3.92;;;33.20;96.70;;;;;;1820460;78;21134;-79
2023/07/02 06:10:46;;;;;;;7.30;3.60;;;33.30;96.40;;;;;;1812445;78;21201;-79
2023/07/02 06:13:20;;;;;;;9.40;4.05;;;33.20;96.70;;;;;;1816926;78;21088;-79
2023/07/02 06:16:10;;;;;;;13.58;4.70;;;33.20;96.60;;;;;;1839131;77;21159;-79
2023/07/02 06:18:44;;;;;;;10.55;3.67;;;33.20;96.70;;;;;;1807095;78;21125;-77
2023/07/02 06:21:15;;;;;;;6.42;3.37;;;33.20;96.60;;;;;;1846617;76;21158;-78
2023/07/02 06:23:51;;;;;;;4.72;3.02;;;33.20;97.30;;;;;;1814100;78;21130;-80
2023/07/02 06:26:22;;;;;;;6.90;3.70;;;33.20;95.80;;;;;;1804045;78;21161;-78
2023/07/02 06:28:58;;;;;;;6.70;3.05;;;33.20;95.80;;;;;;1787864;80;21161;-75
2023/07/02 06:31:37;;;;;;;9.58;4.60;;;33.20;96.20;;;;;;1858972;76;21111;-76
2023/07/02 06:34:11;;;;;;;7.08;4.33;;;33.20;96.20;;;;;;1836300;76;21083;-78
2023/07/02 06:36:45;;;;;;;6.33;4.60;;;33.30;96.20;;;;;;1814921;76;21150;-78
2023/07/02 06:39:20;;;;;;;;;;;33.30;96.00;;;;;;1842678;77;21598;-80
2023/07/02 06:41:51;;;;;;;11.12;4.47;;;33.40;96.60;;;;;;1852373;77;20175;-77
2023/07/02 06:44:28;;;;;;;7.50;3.92;;;33.40;96.00;;;;;;1847929;77;21174;-79
2023/07/02 06:47:01;;;;;;;5.15;3.45;;;33.40;96.30;;;;;;1819882;78;21149;-78
2023/07/02 06:49:44;;;;;;;4.87;2.70;;;33.50;96.20;;;;;;1797425;78;21132;-77
2023/07/02 06:52:17;;;;;;;7.17;2.90;;;33.50;95.90;;;;;;1841119;76;21216;-77
2023/07/02 06:54:52;;;;;;;8.20;4.53;;;33.50;95.40;;;;;;1856382;76;21162;-79
2023/07/02 06:57:36;;;;;;;5.35;3.15;;;33.50;95.60;;;;;;1834481;76;21541;-76
2023/07/02 07:00:09;;;;;;;5.70;2.62;;;33.60;95.10;;;;;;1840717;76;21127;-77
2023/07/02 07:02:44;;;;;;;5.80;2.90;;;33.60;94.90;;;;;;1855455;76;21157;-77
2023/07/02 07:05:18;;;;;;;5.15;2.80;;;33.60;95.30;;;;;;1841617;76;21060;-78
2023/07/02 07:07:54;;;;;;;8.23;3.77;;;33.60;95.60;;;;;;1847200;76;21170;-79
2023/07/02 07:10:33;;;;;;;24.52;5.42;;;33.60;95.50;;;;;;1843048;76;21582;-76
2023/07/02 07:13:05;;;;;;;13.60;3.35;;;33.60;95.70;;;;;;1823192;76;21107;-82
2023/07/02 07:15:45;;;;;;;9.48;3.50;;;33.60;95.40;;;;;;1842909;76;21131;-77
2023/07/02 07:18:35;;;;;;;15.50;4.15;;;33.60;94.80;;;;;;1822739;78;21103;-77
2023/07/02 07:21:10;;;;;;;6.72;2.80;;;33.70;95.20;;;;;;1845427;76;21554;-78
2023/07/02 07:23:47;;;;;;;4.78;3.15;;;33.70;94.80;;;;;;1848078;76;21092;-79
2023/07/02 07:26:20;;;;;;;6.90;3.00;;;33.60;94.80;;;;;;1851417;76;21128;-79
2023/07/02 07:28:55;;;;;;;9.83;3.83;;;33.60;94.50;;;;;;1840925;78;21083;-77
2023/07/02 07:31:31;;;;;;;15.83;4.20;;;33.60;94.20;;;;;;1833640;76;21129;-76
2023/07/02 07:34:04;;;;;;;4.08;2.50;;;33.70;94.20;;;;;;1835353;76;21035;-76
2023/07/02 07:36:40;;;;;;;4.00;1.98;;;33.60;94.50;;;;;;1835188;78;21062;-78
2023/07/02 07:39:23;;;;;;;9.60;3.08;;;33.60;94.80;;;;;;1885410;75;21063;-77
2023/07/02 07:42:02;;;;;;;7.67;2.98;;;33.60;94.50;;;;;;1907090;74;21138;-79
2023/07/02 07:44:34;;;;;;;4.53;2.42;;;33.60;94.40;;;;;;1895738;74;21107;-77
2023/07/02 07:47:23;;;;;;;4.03;2.95;;;33.60;94.70;;;;;;1811668;78;21111;-77
2023/07/02 07:50:10;;;;;;;15.60;3.37;;;33.60;94.60;;;;;;1836569;78;21068;-77
2023/07/02 07:52:43;;;;;;;9.03;3.72;;;33.60;94.90;;;;;;1839736;76;21503;-76
2023/07/02 07:55:32;;;;;;;25.92;5.90;;;33.60;94.50;;;;;;1850967;76;21197;-76
2023/07/02 07:58:03;;;;;;;26.07;6.17;;;33.60;94.20;;;;;;1837427;76;21183;-78
2023/07/02 08:00:39;;;;;;;19.50;4.83;;;33.50;94.50;;;;;;1817917;78;21544;-77
2023/07/02 08:03:17;;;;;;;5.28;2.75;;;33.50;94.70;;;;;;1823857;77;21119;-78
2023/07/02 08:06:07;;;;;;;12.53;3.58;;;33.50;94.20;;;;;;1844654;76;21096;-76
2023/07/02 08:08:42;;;;;;;12.82;4.17;;;33.50;94.50;;;;;;1820885;78;21115;-77
2023/07/02 08:11:19;;;;;;;8.88;3.90;;;33.50;94.70;;;;;;1826356;77;21137;-76
2023/07/02 08:14:00;;;;;;;5.95;3.80;;;33.40;94.70;;;;;;1853386;76;21217;-77
2023/07/02 08:16:44;;;;;;;3.42;3.00;;;33.30;94.70;;;;;;1844157;76;21554;-77
2023/07/02 08:19:21;;;;;;;7.42;3.20;;;33.30;94.20;;;;;;1779983;78;21173;-77
2023/07/02 08:22:00;;;;;;;5.62;4.03;;;33.20;95.90;;;;;;1845648;76;21150;-77
2023/07/02 08:24:35;;;;;;;5.47;3.45;;;33.10;97.40;;;;;;1837055;76;21158;-76
2023/07/02 08:27:19;;;;;;;5.22;3.52;;;32.90;97.70;;;;;;1833493;76;21087;-77
2023/07/02 08:30:13;;;;;;;9.83;3.00;;;32.70;98.50;;;;;;1832881;76;21667;-76
2023/07/02 08:33:02;;;;;;;4.90;2.17;;;32.50;97.80;;;;;;1833424;76;21402;-78
2023/07/02 08:35:47;;;;;;;6.67;2.42;;;32.20;97.80;;;;;;1828696;77;21148;-77
2023/07/02 08:38:31;;;;;;;4.80;2.12;;;32.00;98.10;;;;;;1875256;75;21474;-77
2023/07/02 08:41:05;;;;;;;7.62;3.00;;;31.70;98.40;;;;;;1859140;76;21165;-76
2023/07/02 08:43:39;;;;;;;7.45;2.27;;;31.60;98.70;;;;;;1916633;75;21131;-77
2023/07/02 08:46:13;;;;;;;8.10;2.02;;;31.40;98.90;;;;;;1801584;78;21162;-78
2023/07/02 08:49:03;;;;;;;5.87;2.77;;;31.30;99.00;;;;;;1802620;79;21084;-77
2023/07/02 08:51:36;;;;;;;4.17;2.30;;;31.20;99.10;;;;;;1877740;76;21181;-75
2023/07/02 08:54:25;;;;;;;3.98;2.62;;;31.20;99.30;;;;;;1837776;76;21195;-76
2023/07/02 08:57:01;;;;;;;5.28;2.58;;;31.20;99.00;;;;;;1842474;76;21205;-77
2023/07/02 08:59:33;;;;;;;2.85;2.08;;;31.20;99.10;;;;;;1786847;80;21088;-78
2023/07/02 09:02:07;;;;;;;6.40;2.22;;;31.10;99.30;;;;;;1851998;76;21075;-79
2023/07/02 09:04:41;;;;;;;8.08;2.80;;;31.00;99.30;;;;;;1837109;76;21132;-76
2023/07/02 09:07:18;;;;;;;9.33;2.83;;;30.90;99.60;;;;;;1838754;76;21133;-76
2023/07/02 09:09:53;;;;;;;8.90;3.08;;;30.70;99.80;;;;;;1868535;76;21217;-76
2023/07/02 09:12:34;;;;;;;5.90;2.30;;;30.60;99.90;;;;;;1879745;75;21106;-76
2023/07/02 09:15:09;;;;;;;5.85;2.27;;;30.50;99.90;;;;;;1901400;74;21076;-77
2023/07/02 09:18:01;;;;;;;8.20;2.10;;;30.40;99.90;;;;;;1781896;78;21714;-76
2023/07/02 09:20:42;;;;;;;5.62;2.67;;;30.00;99.90;;;;;;1808489;77;21264;-76
2023/07/02 09:23:19;;;;;;;7.75;2.75;;;29.80;99.90;;;;;;1856547;76;21079;-77
2023/07/02 09:25:56;;;;;;;7.67;2.83;;;29.60;99.90;;;;;;1804093;78;21119;-75
2023/07/02 09:28:30;;;;;;;5.78;2.60;;;29.60;99.90;;;;;;1806377;78;21170;-75
2023/07/02 09:31:04;;;;;;;5.92;2.33;;;29.50;99.90;;;;;;1800660;77;21056;-77
2023/07/02 09:33:39;;;;;;;8.20;2.92;;;29.40;99.90;;;;;;1841198;76;21170;-77
2023/07/02 09:36:13;;;;;;;5.30;2.75;;;29.20;99.90;;;;;;1846006;76;21538;-77
2023/07/02 09:38:57;;;;;;;8.18;2.77;;;29.20;99.90;;;;;;1904686;74;21088;-77
2023/07/02 09:41:34;;;;;;;10.18;3.87;;;29.10;99.90;;;;;;1828062;77;21175;-79
2023/07/02 09:44:10;;;;;;;6.05;2.80;;;29.10;99.90;;;;;;1824093;77;21178;-78
2023/07/02 09:46:52;;;;;;;6.75;2.90;;;29.00;99.90;;;;;;1797113;78;21098;-79
2023/07/02 09:49:48;;;;;;;6.90;2.80;;;29.00;99.90;;;;;;1829031;77;21562;-77
2023/07/02 09:52:39;;;;;;;6.50;2.55;;;28.90;99.90;;;;;;1803634;78;21125;-77
2023/07/02 09:55:11;;;;;;;10.08;3.10;;;28.80;99.90;;;;;;1899902;74;21127;-78
2023/07/02 09:57:57;;;;;;;6.20;3.08;;;28.80;99.90;;;;;;1824055;76;21145;-77
2023/07/02 10:00:34;;;;;;;5.17;2.20;;;28.80;99.90;;;;;;1852726;76;21546;-77
2023/07/02 10:03:11;;;;;;;5.87;2.47;;;28.80;99.90;;;;;;1894568;74;21636;-81
2023/07/02 10:05:43;;;;;;;5.35;2.08;;;28.80;99.90;;;;;;1804411;77;21108;-77
2023/07/02 10:08:17;;;;;;;4.42;2.37;;;28.70;99.90;;;;;;1813645;77;21115;-77
2023/07/02 10:10:55;;;;;;;7.05;3.05;;;28.70;99.90;;;;;;1818833;78;21201;-77
2023/07/02 10:13:32;;;;;;;9.40;3.60;;;28.60;99.90;;;;;;1784142;78;21132;-76
2023/07/02 10:16:08;;;;;;;10.23;3.40;;;28.60;99.90;;;;;;1784864;78;21185;-76
2023/07/02 10:18:42;;;;;;;7.60;3.58;;;28.60;99.90;;;;;;1794400;78;21075;-78
2023/07/02 10:21:20;;;;;;;5.28;3.08;;;28.50;99.90;;;;;;1822135;76;21529;-77
2023/07/02 10:23:55;;;;;;;6.85;3.47;;;28.50;99.90;;;;;;1805303;78;21436;-78
2023/07/02 10:26:27;;;;;;;9.50;3.52;;;28.40;99.90;;;;;;1816907;78;21085;-76
2023/07/02 10:29:02;;;;;;;8.53;3.40;;;28.40;99.90;;;;;;1820945;77;21061;-76
2023/07/02 10:31:36;;;;;;;9.28;3.80;;;28.30;99.90;;;;;;1851077;76;21131;-78
2023/07/02 10:34:11;;;;;;;7.50;3.80;;;28.30;99.90;;;;;;1840871;76;21652;-76
2023/07/02 10:36:47;;;;;;;;;;;28.30;99.90;;;;;;1895355;74;21099;-76
2023/07/02 10:39:20;;;;;;;6.05;3.22;;;28.30;99.90;;;;;;1889287;75;20126;-75
2023/07/02 10:42:13;;;;;;;5.62;2.95;;;28.20;99.90;;;;;;1809537;77;21166;-77
2023/07/02 10:44:55;;;;;;;9.90;3.05;;;28.20;99.90;;;;;;1840786;76;21151;-75
2023/07/02 10:47:29;;;;;;;9.33;2.80;;;28.20;99.90;;;;;;1849739;76;21146;-77
2023/07/02 10:50:04;;;;;;;12.85;2.77;;;28.10;99.90;;;;;;1845091;76;21163;-77
2023/07/02 10:52:41;;;;;;;7.25;3.27;;;28.10;99.90;;;;;;1820458;77;21159;-74
2023/07/02 10:55:22;;;;;;;12.88;7.33;;;28.10;99.90;;;;;;1791571;78;21174;-75
2023/07/02 10:58:08;;;;;;;9.58;4.03;;;28.10;99.90;;;;;;1846534;76;21107;-77
2023/07/02 11:00:49;;;;;;;9.03;3.67;;;28.10;99.90;;;;;;1805223;77;21114;-82
2023/07/02 11:03:30;;;;;;;8.75;3.42;;;28.10;99.90;;;;;;1788001;77;21094;-81
2023/07/02 11:06:20;;;;;;;3.72;2.33;;;28.10;99.90;;;;;;1813621;77;21214;-82
2023/07/02 11:08:54;;;;;;;6.90;3.02;;;28.10;99.90;;;;;;1889846;74;21094;-83
2023/07/02 11:11:28;;;;;;;4.78;2.47;;;28.10;99.90;;;;;;1848883;76;21149;-76
2023/07/02 11:14:12;;;;;;;5.37;2.60;;;28.20;99.90;;;;;;1843119;76;21202;-82
2023/07/02 11:16:45;;;;;;;5.15;3.08;;;28.20;99.90;;;;;;1828896;77;21097;-82
2023/07/02 11:19:19;;;;;;;6.75;3.10;;;28.20;99.90;;;;;;1860710;76;21178;-77
2023/07/02 11:22:00;;;;;;;5.22;2.67;;;28.20;99.90;;;;;;1848088;76;21154;-78
2023/07/02 11:24:39;;;;;;;4.22;2.08;;;28.20;99.90;;;;;;1800080;78;21087;-79
2023/07/02 11:27:16;;;;;;;5.35;2.72;;;28.20;99.90;;;;;;1834463;76;21511;-82
2023/07/02 11:29:51;;;;;;;4.62;2.52;;;28.20;99.90;;;;;;1837186;76;21613;-79
2023/07/02 11:32:23;;;;;;;4.10;2.30;;;28.20;99.90;;;;;;1834725;75;21103;-77
2023/07/02 11:35:13;;;;;;;5.28;2.77;;;28.10;99.90;;;;;;1868880;74;21215;-82
2023/07/02 11:37:54;;;;;;;5.10;2.45;;;28.10;99.90;;;;;;1864700;75;21137;-82
2023/07/02 11:40:36;;;;;;;6.78;3.17;;;28.10;99.90;;;;;;1850395;75;21111;-81
2023/07/02 11:43:12;;;;;;;5.95;2.70;;;28.20;99.90;;;;;;1843861;77;21143;-83
2023/07/02 11:45:45;;;;;;;6.12;3.20;;;28.20;99.90;;;;;;1871165;76;21106;-83
2023/07/02 11:48:19;;;;;;;15.18;3.55;;;28.20;99.90;;;;;;1835441;76;21165;-81
2023/07/02 11:50:57;;;;;;;7.35;2.60;;;28.20;99.90;;;;;;1852934;76;21588;-83
2023/07/02 11:53:30;;;;;;;5.58;2.70;;;28.20;99.90;;;;;;1850061;76;21696;-82
2023/07/02 11:56:13;;;;;;;5.15;2.85;;;28.20;99.90;;;;;;1872308;76;21126;-84
2023/07/02 11:58:56;;;;;;;5.03;2.52;;;28.30;99.90;;;;;;1880020;75;21152;-82
2023/07/02 12:01:29;;;;;;;;;;;28.30;99.90;;;;;;1884397;74;21639;-82
2023/07/02 12:04:10;;;;;;;8.38;3.15;;;28.20;99.90;;;;;;1885250;74;20169;-83
2023/07/02 12:06:48;;;;;;;7.30;3.85;;;28.30;99.90;;;;;;1813154;77;21565;-79
2023/07/02 12:09:25;;;;;;;7.40;3.25;;;28.20;99.90;;;;;;1842364;76;21139;-82
2023/07/02 12:11:58;;;;;;;5.58;2.95;;;28.20;99.90;;;;;;1839163;77;21126;-82
2023/07/02 12:14:32;;;;;;;5.08;3.10;;;28.20;99.90;;;;;;1843354;77;21092;-82
2023/07/02 12:17:04;;;;;;;7.05;4.00;;;28.20;99.90;;;;;;1814933;78;21113;-83
2023/07/02 12:19:37;;;;;;;8.28;3.10;;;28.20;99.90;;;;;;1876355;76;21122;-82
2023/07/02 12:22:10;;;;;;;6.87;3.00;;;28.20;99.90;;;;;;1842605;76;21245;-81
2023/07/02 12:24:42;;;;;;;5.95;3.58;;;28.10;99.90;;;;;;1851936;76;21070;-82
2023/07/02 12:27:16;;;;;;;7.15;4.12;;;28.10;99.90;;;;;;1894801;74;21156;-82
2023/07/02 12:29:51;;;;;;;7.92;4.15;;;28.10;99.90;;;;;;1890913;74;21079;-79
2023/07/02 12:32:25;;;;;;;6.65;3.60;;;28.10;99.90;;;;;;1844628;76;21124;-80
2023/07/02 12:35:02;;;;;;;5.83;3.35;;;28.10;99.90;;;;;;1836790;76;21091;-80
2023/07/02 12:37:34;;;;;;;7.65;3.47;;;28.10;99.90;;;;;;1879799;74;21117;-77
2023/07/02 12:40:14;;;;;;;5.83;3.30;;;28.10;99.90;;;;;;1864562;76;21080;-79
2023/07/02 12:42:56;;;;;;;5.00;2.77;;;28.10;99.90;;;;;;1842278;76;21086;-81
2023/07/02 12:45:47;;;;;;;7.95;3.08;;;28.10;99.90;;;;;;1806235;77;21133;-80
2023/07/02 12:48:35;;;;;;;4.35;2.47;;;28.10;99.90;;;;;;1855035;76;21166;-82
2023/07/02 12:51:13;;;;;;;4.15;2.45;;;28.00;99.90;;;;;;1854874;76;21250;-81
2023/07/02 12:53:59;;;;;;;6.65;2.90;;;28.00;99.90;;;;;;1805152;78;21103;-79
2023/07/02 12:56:37;;;;;;;4.22;2.25;;;28.00;99.90;;;;;;1844963;76;21087;-82
2023/07/02 12:59:08;;;;;;;5.05;1.70;;;28.10;99.90;;;;;;1814055;78;21189;-79
2023/07/02 13:01:43;;;;;;;4.65;2.00;;;28.00;99.90;;;;;;1848494;76;21131;-81
2023/07/02 13:04:20;;;;;;;3.52;1.77;;;28.00;99.90;;;;;;1805717;78;21088;-82
2023/07/02 13:06:52;;;;;;;3.27;1.80;;;27.90;99.90;;;;;;1806376;78;21483;-80
2023/07/02 13:09:34;;;;;;;3.50;1.80;;;27.90;99.90;;;;;;1844167;76;21136;-81
2023/07/02 13:12:16;;;;;;;4.17;1.60;;;27.90;99.90;;;;;;1817720;78;21144;-81
2023/07/02 13:14:54;;;;;;;3.58;1.50;;;27.90;99.90;;;;;;1815917;76;21059;-81
2023/07/02 13:17:26;;;;;;;3.72;1.37;;;27.90;99.90;;;;;;1827171;77;21146;-78
2023/07/02 13:20:00;;;;;;;2.40;1.50;;;27.90;99.90;;;;;;1838339;76;21040;-78
2023/07/02 13:22:37;;;;;;;3.17;1.52;;;27.80;99.90;;;;;;1825227;78;21149;-78
2023/07/02 13:25:11;;;;;;;14.68;4.15;;;27.90;99.90;;;;;;1828037;77;21134;-80
2023/07/02 13:27:45;;;;;;;12.45;3.58;;;27.90;99.90;;;;;;1818995;77;21474;-78
2023/07/02 13:30:22;;;;;;;8.85;2.42;;;27.80;99.90;;;;;;1835892;76;21794;-80
2023/07/02 13:32:55;;;;;;;8.03;2.52;;;27.80;99.90;;;;;;1832834;76;21191;-75
2023/07/02 13:35:31;;;;;;;5.78;2.33;;;27.60;99.90;;;;;;1860748;76;21162;-78